Αρχική σελίδα
METAR-TAF:

METAR-TAF

Αεροδρόμια :

Πόλη του Κουβέιτ, Κουβέιτ

γεωγραφικό πλάτος: 29-13N, γεωγραφικό μήκος: 047-59E, υψόμετρο: 55 μ

Παρών καιρός

Η αναφορά έγινε 52 λεπτά πριν, στις 15:00 UTC
Άνεμος 8 kt από BA
Θερμοκρασία 40°C
Υγρασία 14%
Πίεση 1006 hPa
Ορατότητα 10 χλμ και άνω
Δεν υπάρχουν νέφη με βάση κάτω από τα 1500 μ. και δεν υπάρχουν νέφη σωρειτομελανίτες.

METAR: OKKK 271500Z 05008KT CAVOK 40/07 Q1006 NOSIG

Χρόνος: 18:52 (15:52 UTC)

Πρόγνωση Καιρού

Η αναφορά έγινε 4 ώρες και 52 λεπτά πριν, στις 11:00 UTC
Η πρόγνωση ισχύει από τις 27 στις 12 UTC έως τις 28 στις 18 UTC
Άνεμος 12 kt από Β
Ορατότητα: 7000 μ

TAF: OKKK 271100Z 2712/2818 35012KT 7000 NSC

Μετεωρολογικές αναφορές και προγνώσεις για περισσότερα από 4000 αεροδρόμια (δελτία METAR και TAF).

Οι διαθέσιμοι σταθμοί απεικονίζονται στο χάρτη με κίτρινες και κόκκινες κουκκίδες.

Μετακινήστε το ποντίκι πάνω από τις κουκκίδες για να δείτε το όνομα του σταθμού.

Στη συνέχεια, κάντε κλικ για να δείτε τις μετεωρολογικές αναφορές και τις προγνώσεις καιρού.

Για να αλλάξετε το χάρτη: κάντε κλικ στα πράσινα κουμπιά με τον μαύρο σταυρό για να ζουμάρετε, στο πράσινο κουμπί με την παύλα για να αφαιρέσετε το ζουμ ή στα πράσινα βέλη για να αντιπαραβάλλετε χάρτες.


METAR-TAF: